sensor_id;sensor_type;location;lat;lon;timestamp;pressure;altitude;pressure_sealevel;temperature;humidity
44138;BME280;29800;55.942;37.314;2022-08-19T00:00:16;100095.00;;;21.79;52.15
44138;BME280;29800;55.942;37.314;2022-08-19T00:02:43;100100.03;;;21.77;52.50
44138;BME280;29800;55.942;37.314;2022-08-19T00:05:10;100107.91;;;21.75;52.39
44138;BME280;29800;55.942;37.314;2022-08-19T00:07:37;100104.13;;;21.71;52.75
44138;BME280;29800;55.942;37.314;2022-08-19T00:10:05;100121.97;;;21.70;52.76
44138;BME280;29800;55.942;37.314;2022-08-19T00:12:33;100120.63;;;21.67;52.97
44138;BME280;29800;55.942;37.314;2022-08-19T00:14:59;100121.59;;;21.63;52.79
44138;BME280;29800;55.942;37.314;2022-08-19T00:17:25;100119.44;;;21.60;52.88
44138;BME280;29800;55.942;37.314;2022-08-19T00:19:51;100122.22;;;21.60;52.91
44138;BME280;29800;55.942;37.314;2022-08-19T00:22:18;100126.75;;;21.56;52.77
44138;BME280;29800;55.942;37.314;2022-08-19T00:24:45;100130.16;;;21.53;52.63
44138;BME280;29800;55.942;37.314;2022-08-19T00:27:11;100121.81;;;21.53;52.72
44138;BME280;29800;55.942;37.314;2022-08-19T00:29:37;100132.44;;;21.51;52.50
44138;BME280;29800;55.942;37.314;2022-08-19T00:32:04;100122.78;;;21.48;52.55
44138;BME280;29800;55.942;37.314;2022-08-19T00:34:30;100119.16;;;21.47;52.46
44138;BME280;29800;55.942;37.314;2022-08-19T00:36:57;100118.13;;;21.43;52.50
44138;BME280;29800;55.942;37.314;2022-08-19T00:39:23;100117.91;;;21.40;52.67
44138;BME280;29800;55.942;37.314;2022-08-19T00:41:50;100119.34;;;21.37;52.48
44138;BME280;29800;55.942;37.314;2022-08-19T00:44:25;100124.94;;;21.37;52.43
44138;BME280;29800;55.942;37.314;2022-08-19T00:46:53;100124.53;;;21.30;52.29
44138;BME280;29800;55.942;37.314;2022-08-19T00:49:24;100128.13;;;21.30;52.32
44138;BME280;29800;55.942;37.314;2022-08-19T00:51:56;100132.34;;;21.28;52.00
44138;BME280;29800;55.942;37.314;2022-08-19T00:54:23;100134.94;;;21.24;51.84
44138;BME280;29800;55.942;37.314;2022-08-19T00:56:50;100142.50;;;21.24;51.97
44138;BME280;29800;55.942;37.314;2022-08-19T00:59:17;100134.44;;;21.22;51.81
44138;BME280;29800;55.942;37.314;2022-08-19T01:01:45;100136.72;;;21.20;51.97
44138;BME280;29800;55.942;37.314;2022-08-19T01:04:12;100139.28;;;21.17;51.82
44138;BME280;29800;55.942;37.314;2022-08-19T01:06:39;100144.84;;;21.17;52.05
44138;BME280;29800;55.942;37.314;2022-08-19T01:09:09;100142.72;;;21.14;52.20
44138;BME280;29800;55.942;37.314;2022-08-19T01:11:38;100141.06;;;21.13;52.32
44138;BME280;29800;55.942;37.314;2022-08-19T01:14:05;100144.97;;;21.11;52.67
44138;BME280;29800;55.942;37.314;2022-08-19T01:16:34;100143.34;;;21.10;52.15
44138;BME280;29800;55.942;37.314;2022-08-19T01:19:01;100146.22;;;21.05;52.17
44138;BME280;29800;55.942;37.314;2022-08-19T01:21:49;100137.16;;;21.14;52.01
44138;BME280;29800;55.942;37.314;2022-08-19T01:24:18;100137.34;;;21.03;51.76
44138;BME280;29800;55.942;37.314;2022-08-19T01:26:46;100139.63;;;21.01;51.68
44138;BME280;29800;55.942;37.314;2022-08-19T01:29:13;100140.25;;;20.98;51.86
44138;BME280;29800;55.942;37.314;2022-08-19T01:31:39;100144.78;;;20.94;52.04
44138;BME280;29800;55.942;37.314;2022-08-19T01:34:06;100143.44;;;20.91;51.85
44138;BME280;29800;55.942;37.314;2022-08-19T01:36:37;100160.13;;;20.91;52.40
44138;BME280;29800;55.942;37.314;2022-08-19T01:39:07;100152.41;;;20.88;52.27
44138;BME280;29800;55.942;37.314;2022-08-19T01:41:33;100154.97;;;20.85;52.04
44138;BME280;29800;55.942;37.314;2022-08-19T01:44:00;100156.72;;;20.81;52.07
44138;BME280;29800;55.942;37.314;2022-08-19T01:46:29;100158.19;;;20.78;52.05
44138;BME280;29800;55.942;37.314;2022-08-19T01:48:56;100155.69;;;20.77;52.00
44138;BME280;29800;55.942;37.314;2022-08-19T01:51:22;100153.53;;;20.73;52.06
44138;BME280;29800;55.942;37.314;2022-08-19T01:53:50;100163.84;;;20.73;51.81
44138;BME280;29800;55.942;37.314;2022-08-19T01:56:18;100155.28;;;20.69;51.71
44138;BME280;29800;55.942;37.314;2022-08-19T01:58:54;100166.41;;;20.69;51.96
44138;BME280;29800;55.942;37.314;2022-08-19T02:01:21;100163.97;;;20.63;52.10
44138;BME280;29800;55.942;37.314;2022-08-19T02:03:47;100167.41;;;20.60;52.15
44138;BME280;29800;55.942;37.314;2022-08-19T02:06:15;100166.56;;;20.59;52.13
44138;BME280;29800;55.942;37.314;2022-08-19T02:08:43;100178.00;;;20.57;52.30
44138;BME280;29800;55.942;37.314;2022-08-19T02:11:23;100171.00;;;20.60;52.12
44138;BME280;29800;55.942;37.314;2022-08-19T02:13:53;100183.34;;;20.54;52.40
44138;BME280;29800;55.942;37.314;2022-08-19T02:16:20;100181.16;;;20.51;52.21
44138;BME280;29800;55.942;37.314;2022-08-19T02:18:47;100175.09;;;20.49;52.37
44138;BME280;29800;55.942;37.314;2022-08-19T02:21:18;100184.56;;;20.48;52.77
44138;BME280;29800;55.942;37.314;2022-08-19T02:23:44;100181.56;;;20.44;52.87
44138;BME280;29800;55.942;37.314;2022-08-19T02:26:11;100183.84;;;20.42;53.13
44138;BME280;29800;55.942;37.314;2022-08-19T02:28:38;100180.53;;;20.40;53.04
44138;BME280;29800;55.942;37.314;2022-08-19T02:31:13;100178.59;;;20.41;53.24
44138;BME280;29800;55.942;37.314;2022-08-19T02:33:40;100185.06;;;20.36;53.23
44138;BME280;29800;55.942;37.314;2022-08-19T02:36:08;100188.13;;;20.34;53.98
44138;BME280;29800;55.942;37.314;2022-08-19T02:38:35;100187.13;;;20.30;54.04
44138;BME280;29800;55.942;37.314;2022-08-19T02:41:05;100187.13;;;20.30;53.83
44138;BME280;29800;55.942;37.314;2022-08-19T02:43:33;100182.16;;;20.27;53.66
44138;BME280;29800;55.942;37.314;2022-08-19T02:46:30;100178.78;;;20.30;53.94
44138;BME280;29800;55.942;37.314;2022-08-19T02:48:59;100181.34;;;20.27;54.23
44138;BME280;29800;55.942;37.314;2022-08-19T02:51:32;100174.94;;;20.26;54.30
44138;BME280;29800;55.942;37.314;2022-08-19T02:53:59;100189.75;;;20.22;54.23
44138;BME280;29800;55.942;37.314;2022-08-19T02:56:26;100191.19;;;20.19;54.34
44138;BME280;29800;55.942;37.314;2022-08-19T02:58:54;100190.38;;;20.18;54.48
44138;BME280;29800;55.942;37.314;2022-08-19T03:01:28;100193.38;;;20.22;54.48
44138;BME280;29800;55.942;37.314;2022-08-19T03:03:59;100190.28;;;20.24;54.66
44138;BME280;29800;55.942;37.314;2022-08-19T03:06:26;100178.63;;;20.22;54.48
44138;BME280;29800;55.942;37.314;2022-08-19T03:08:52;100182.56;;;20.20;54.44
44138;BME280;29800;55.942;37.314;2022-08-19T03:11:24;100185.03;;;20.22;54.35
44138;BME280;29800;55.942;37.314;2022-08-19T03:13:51;100190.59;;;20.22;54.53
44138;BME280;29800;55.942;37.314;2022-08-19T03:16:23;100188.94;;;20.21;54.29
44138;BME280;29800;55.942;37.314;2022-08-19T03:18:50;100193.38;;;20.22;54.48
44138;BME280;29800;55.942;37.314;2022-08-19T03:21:24;100184.41;;;20.25;54.60
44138;BME280;29800;55.942;37.314;2022-08-19T03:23:55;100192.22;;;20.23;54.73
44138;BME280;29800;55.942;37.314;2022-08-19T03:26:21;100199.22;;;20.20;54.30
44138;BME280;29800;55.942;37.314;2022-08-19T03:28:47;100196.16;;;20.22;54.64
44138;BME280;29800;55.942;37.314;2022-08-19T03:31:17;100205.00;;;20.24;54.28
44138;BME280;29800;55.942;37.314;2022-08-19T03:33:44;100199.44;;;20.24;54.46
44138;BME280;29800;55.942;37.314;2022-08-19T03:36:19;100202.72;;;20.26;54.29
44138;BME280;29800;55.942;37.314;2022-08-19T03:38:51;100202.72;;;20.26;54.21
44138;BME280;29800;55.942;37.314;2022-08-19T03:41:23;100202.72;;;20.26;54.28
44138;BME280;29800;55.942;37.314;2022-08-19T03:43:51;100198.84;;;20.27;54.01
44138;BME280;29800;55.942;37.314;2022-08-19T03:46:20;100202.94;;;20.30;54.23
44138;BME280;29800;55.942;37.314;2022-08-19T03:48:48;100204.59;;;20.31;54.40
44138;BME280;29800;55.942;37.314;2022-08-19T03:51:27;100205.66;;;20.35;54.30
44138;BME280;29800;55.942;37.314;2022-08-19T03:53:55;100207.28;;;20.36;54.12
44138;BME280;29800;55.942;37.314;2022-08-19T03:56:22;100198.94;;;20.36;54.09
44138;BME280;29800;55.942;37.314;2022-08-19T03:58:48;100196.97;;;20.36;54.02
44138;BME280;29800;55.942;37.314;2022-08-19T04:01:17;100200.00;;;20.40;54.26
44138;BME280;29800;55.942;37.314;2022-08-19T04:03:44;100201.94;;;20.39;54.32
44138;BME280;29800;55.942;37.314;2022-08-19T04:06:17;100202.47;;;20.42;54.11
44138;BME280;29800;55.942;37.314;2022-08-19T04:08:45;100205.25;;;20.42;54.27
44138;BME280;29800;55.942;37.314;2022-08-19T04:11:14;100204.13;;;20.43;54.37
44138;BME280;29800;55.942;37.314;2022-08-19T04:13:41;100202.19;;;20.43;54.02
44138;BME280;29800;55.942;37.314;2022-08-19T04:16:09;100201.25;;;20.48;54.08
44138;BME280;29800;55.942;37.314;2022-08-19T04:18:37;100210.63;;;20.52;54.38
44138;BME280;29800;55.942;37.314;2022-08-19T04:21:05;100210.03;;;20.55;54.27
44138;BME280;29800;55.942;37.314;2022-08-19T04:23:32;100210.03;;;20.55;54.54
44138;BME280;29800;55.942;37.314;2022-08-19T04:25:58;100207.75;;;20.57;54.22
44138;BME280;29800;55.942;37.314;2022-08-19T04:28:25;100212.19;;;20.58;54.09
44138;BME280;29800;55.942;37.314;2022-08-19T04:30:53;100213.53;;;20.61;54.58
44138;BME280;29800;55.942;37.314;2022-08-19T04:33:23;100218.50;;;20.64;53.79
44138;BME280;29800;55.942;37.314;2022-08-19T04:35:51;100213.47;;;20.66;53.99
44138;BME280;29800;55.942;37.314;2022-08-19T04:38:20;100214.31;;;20.66;54.17
44138;BME280;29800;55.942;37.314;2022-08-19T04:40:50;100214.81;;;20.68;54.25
44138;BME280;29800;55.942;37.314;2022-08-19T04:43:36;100215.63;;;20.69;53.94
44138;BME280;29800;55.942;37.314;2022-08-19T04:46:10;100212.75;;;20.74;53.98
44138;BME280;29800;55.942;37.314;2022-08-19T04:48:38;100214.72;;;20.73;53.70
44138;BME280;29800;55.942;37.314;2022-08-19T04:51:10;100212.69;;;20.79;53.86
44138;BME280;29800;55.942;37.314;2022-08-19T04:53:37;100213.50;;;20.80;54.55
44138;BME280;29800;55.942;37.314;2022-08-19T04:56:10;100205.56;;;20.87;54.31
44138;BME280;29800;55.942;37.314;2022-08-19T04:58:38;100221.63;;;20.90;54.53
44138;BME280;29800;55.942;37.314;2022-08-19T05:01:05;100210.72;;;20.93;54.15
44138;BME280;29800;55.942;37.314;2022-08-19T05:03:31;100215.88;;;21.00;54.36
44138;BME280;29800;55.942;37.314;2022-08-19T05:06:11;100211.63;;;21.17;54.86
44138;BME280;29800;55.942;37.314;2022-08-19T05:08:39;100217.22;;;21.30;54.32
44138;BME280;29800;55.942;37.314;2022-08-19T05:11:26;100217.31;;;21.39;53.60
44138;BME280;29800;55.942;37.314;2022-08-19T05:13:54;100220.31;;;21.57;52.72
44138;BME280;29800;55.942;37.314;2022-08-19T05:16:22;100226.00;;;21.52;54.70
44138;BME280;29800;55.942;37.314;2022-08-19T05:18:49;100222.59;;;21.55;54.26
44138;BME280;29800;55.942;37.314;2022-08-19T05:21:34;100224.91;;;21.75;53.19
44138;BME280;29800;55.942;37.314;2022-08-19T05:24:20;100223.03;;;21.84;54.26
44138;BME280;29800;55.942;37.314;2022-08-19T05:26:49;100212.88;;;21.89;53.67
44138;BME280;29800;55.942;37.314;2022-08-19T05:29:19;100220.00;;;21.95;53.81
44138;BME280;29800;55.942;37.314;2022-08-19T05:31:47;100207.09;;;21.99;53.30
44138;BME280;29800;55.942;37.314;2022-08-19T05:34:16;100217.34;;;22.12;53.39
44138;BME280;29800;55.942;37.314;2022-08-19T05:36:43;100215.88;;;22.15;52.59
44138;BME280;29800;55.942;37.314;2022-08-19T05:39:15;100218.75;;;22.24;52.71
44138;BME280;29800;55.942;37.314;2022-08-19T05:41:48;100217.50;;;22.30;51.48
44138;BME280;29800;55.942;37.314;2022-08-19T05:44:15;100212.13;;;22.33;52.25
44138;BME280;29800;55.942;37.314;2022-08-19T05:46:46;100216.63;;;22.43;52.41
44138;BME280;29800;55.942;37.314;2022-08-19T05:49:21;100216.97;;;22.50;52.32
44138;BME280;29800;55.942;37.314;2022-08-19T05:51:48;100214.06;;;22.55;51.75
44138;BME280;29800;55.942;37.314;2022-08-19T05:54:14;100211.44;;;22.59;51.90
44138;BME280;29800;55.942;37.314;2022-08-19T05:56:41;100214.09;;;22.64;51.70
44138;BME280;29800;55.942;37.314;2022-08-19T05:59:09;100214.31;;;22.68;51.31
44138;BME280;29800;55.942;37.314;2022-08-19T06:01:39;100205.94;;;22.68;50.91
44138;BME280;29800;55.942;37.314;2022-08-19T06:04:06;100211.88;;;22.75;51.51
44138;BME280;29800;55.942;37.314;2022-08-19T06:06:33;100205.16;;;22.76;50.80
44138;BME280;29800;55.942;37.314;2022-08-19T06:09:02;100214.50;;;22.80;50.69
44138;BME280;29800;55.942;37.314;2022-08-19T06:11:43;100219.13;;;22.85;50.98
44138;BME280;29800;55.942;37.314;2022-08-19T06:14:12;100223.38;;;22.82;50.43
44138;BME280;29800;55.942;37.314;2022-08-19T06:16:41;100218.81;;;22.86;51.11
44138;BME280;29800;55.942;37.314;2022-08-19T06:19:10;100229.84;;;22.91;50.85
44138;BME280;29800;55.942;37.314;2022-08-19T06:21:39;100232.47;;;22.97;50.62
44138;BME280;29800;55.942;37.314;2022-08-19T06:24:08;100223.47;;;23.00;50.33
44138;BME280;29800;55.942;37.314;2022-08-19T06:26:36;100223.97;;;23.02;50.59
44138;BME280;29800;55.942;37.314;2022-08-19T06:29:04;100227.16;;;23.09;50.61
44138;BME280;29800;55.942;37.314;2022-08-19T06:31:33;100225.66;;;23.11;50.55
44138;BME280;29800;55.942;37.314;2022-08-19T06:34:04;100218.63;;;23.14;50.38
44138;BME280;29800;55.942;37.314;2022-08-19T06:36:37;100224.22;;;23.14;49.83
44138;BME280;29800;55.942;37.314;2022-08-19T06:39:06;100231.09;;;23.17;50.15
44138;BME280;29800;55.942;37.314;2022-08-19T06:41:46;100225.72;;;23.20;49.80
44138;BME280;29800;55.942;37.314;2022-08-19T06:44:18;100235.22;;;23.19;50.17
44138;BME280;29800;55.942;37.314;2022-08-19T06:46:45;100229.97;;;23.18;49.81
44138;BME280;29800;55.942;37.314;2022-08-19T06:49:11;100232.44;;;23.19;49.59
44138;BME280;29800;55.942;37.314;2022-08-19T06:51:44;100230.94;;;23.22;50.26
44138;BME280;29800;55.942;37.314;2022-08-19T06:54:14;100230.16;;;23.21;50.76
44138;BME280;29800;55.942;37.314;2022-08-19T06:56:41;100222.13;;;23.28;51.49
44138;BME280;29800;55.942;37.314;2022-08-19T06:59:10;100228.69;;;23.33;50.65
44138;BME280;29800;55.942;37.314;2022-08-19T07:01:47;100223.81;;;23.38;51.06
44138;BME280;29800;55.942;37.314;2022-08-19T07:04:17;100229.38;;;23.38;51.01
44138;BME280;29800;55.942;37.314;2022-08-19T07:06:43;100219.03;;;23.39;51.09
44138;BME280;29800;55.942;37.314;2022-08-19T07:09:12;100213.44;;;23.39;50.95
44138;BME280;29800;55.942;37.314;2022-08-19T07:11:46;100220.00;;;23.43;51.56
44138;BME280;29800;55.942;37.314;2022-08-19T07:14:14;100216.09;;;23.44;50.49
44138;BME280;29800;55.942;37.314;2022-08-19T07:16:45;100217.75;;;23.45;50.34
44138;BME280;29800;55.942;37.314;2022-08-19T07:19:12;100219.84;;;23.48;51.49
44138;BME280;29800;55.942;37.314;2022-08-19T07:21:38;100224.78;;;23.51;51.45
44138;BME280;29800;55.942;37.314;2022-08-19T07:24:04;100217.44;;;23.55;51.26
44138;BME280;29800;55.942;37.314;2022-08-19T07:26:33;100227.09;;;23.58;51.98
44138;BME280;29800;55.942;37.314;2022-08-19T07:29:05;100224.50;;;23.61;51.69
44138;BME280;29800;55.942;37.314;2022-08-19T07:31:31;100222.53;;;23.62;51.62
44138;BME280;29800;55.942;37.314;2022-08-19T07:34:04;100225.97;;;23.67;52.56
44138;BME280;29800;55.942;37.314;2022-08-19T07:36:36;100223.69;;;23.70;51.75
44138;BME280;29800;55.942;37.314;2022-08-19T07:39:06;100219.72;;;23.71;50.95
44138;BME280;29800;55.942;37.314;2022-08-19T07:41:35;100219.72;;;23.71;50.38
44138;BME280;29800;55.942;37.314;2022-08-19T07:44:03;100224.66;;;23.74;51.35
44138;BME280;29800;55.942;37.314;2022-08-19T07:46:37;100220.75;;;23.75;50.80
44138;BME280;29800;55.942;37.314;2022-08-19T07:49:05;100217.47;;;23.73;51.16
44138;BME280;29800;55.942;37.314;2022-08-19T07:51:32;100213.50;;;23.74;50.17
44138;BME280;29800;55.942;37.314;2022-08-19T07:53:59;100217.09;;;23.74;50.36
44138;BME280;29800;55.942;37.314;2022-08-19T07:56:25;100220.91;;;23.78;51.33
44138;BME280;29800;55.942;37.314;2022-08-19T07:58:52;100226.97;;;23.80;50.96
44138;BME280;29800;55.942;37.314;2022-08-19T08:01:22;100226.03;;;23.85;51.28
44138;BME280;29800;55.942;37.314;2022-08-19T08:03:50;100226.53;;;23.87;50.68
44138;BME280;29800;55.942;37.314;2022-08-19T08:06:35;100236.56;;;23.88;50.53
44138;BME280;29800;55.942;37.314;2022-08-19T08:09:30;100231.13;;;23.92;50.95
44138;BME280;29800;55.942;37.314;2022-08-19T08:12:00;100238.53;;;23.96;50.55
44138;BME280;29800;55.942;37.314;2022-08-19T08:14:28;100237.88;;;23.99;51.68
44138;BME280;29800;55.942;37.314;2022-08-19T08:16:55;100239.50;;;24.00;50.93
44138;BME280;29800;55.942;37.314;2022-08-19T08:19:23;100241.31;;;24.05;50.67
44138;BME280;29800;55.942;37.314;2022-08-19T08:21:51;100246.09;;;24.04;47.55
44138;BME280;29800;55.942;37.314;2022-08-19T08:24:18;100248.56;;;24.06;49.40
44138;BME280;29800;55.942;37.314;2022-08-19T08:26:45;100245.94;;;24.10;47.30
44138;BME280;29800;55.942;37.314;2022-08-19T08:29:12;100253.81;;;24.16;47.67
44138;BME280;29800;55.942;37.314;2022-08-19T08:31:43;100255.94;;;24.28;48.57
44138;BME280;29800;55.942;37.314;2022-08-19T08:34:11;100245.75;;;24.32;47.78
44138;BME280;29800;55.942;37.314;2022-08-19T08:36:42;100253.16;;;24.46;48.03
44138;BME280;29800;55.942;37.314;2022-08-19T08:39:16;100253.97;;;24.55;48.05
44138;BME280;29800;55.942;37.314;2022-08-19T08:44:45;100247.69;;;24.75;45.36
44138;BME280;29800;55.942;37.314;2022-08-19T08:47:15;100245.88;;;24.80;43.91
44138;BME280;29800;55.942;37.314;2022-08-19T08:49:59;100238.44;;;24.84;45.43
44138;BME280;29800;55.942;37.314;2022-08-19T08:52:29;100235.97;;;24.82;45.62
44138;BME280;29800;55.942;37.314;2022-08-19T08:54:59;100232.84;;;24.84;43.88
44138;BME280;29800;55.942;37.314;2022-08-19T08:57:32;100230.88;;;24.84;43.29
44138;BME280;29800;55.942;37.314;2022-08-19T09:00:07;100243.69;;;24.85;43.06
44138;BME280;29800;55.942;37.314;2022-08-19T09:02:36;100240.09;;;24.85;45.26
44138;BME280;29800;55.942;37.314;2022-08-19T09:05:02;100235.97;;;24.91;45.02
44138;BME280;29800;55.942;37.314;2022-08-19T09:08:13;100245.63;;;25.02;44.40
44138;BME280;29800;55.942;37.314;2022-08-19T09:10:48;100243.97;;;25.01;44.70
44138;BME280;29800;55.942;37.314;2022-08-19T09:13:21;100242.63;;;25.07;44.36
44138;BME280;29800;55.942;37.314;2022-08-19T09:16:10;100239.75;;;25.25;43.82
44138;BME280;29800;55.942;37.314;2022-08-19T09:21:06;100241.28;;;25.13;43.16
44138;BME280;29800;55.942;37.314;2022-08-19T09:23:36;100240.94;;;25.15;44.56
44138;BME280;29800;55.942;37.314;2022-08-19T09:26:07;100247.84;;;25.18;44.84
44138;BME280;29800;55.942;37.314;2022-08-19T09:28:34;100248.06;;;25.12;42.06
44138;BME280;29800;55.942;37.314;2022-08-19T09:31:00;100249.19;;;25.11;43.17
44138;BME280;29800;55.942;37.314;2022-08-19T09:33:26;100253.84;;;25.07;43.15
44138;BME280;29800;55.942;37.314;2022-08-19T09:36:05;100255.97;;;25.10;44.08
44138;BME280;29800;55.942;37.314;2022-08-19T09:38:32;100254.66;;;25.08;42.98
44138;BME280;29800;55.942;37.314;2022-08-19T09:41:03;100255.47;;;25.08;43.43
44138;BME280;29800;55.942;37.314;2022-08-19T09:43:31;100253.84;;;25.07;43.98
44138;BME280;29800;55.942;37.314;2022-08-19T09:45:57;100262.25;;;25.07;43.75
44138;BME280;29800;55.942;37.314;2022-08-19T09:48:24;100261.06;;;25.08;42.58
44138;BME280;29800;55.942;37.314;2022-08-19T09:50:50;100254.78;;;25.11;43.13
44138;BME280;29800;55.942;37.314;2022-08-19T09:53:17;100258.59;;;25.16;42.97
44138;BME280;29800;55.942;37.314;2022-08-19T09:55:43;100254.41;;;25.22;43.89
44138;BME280;29800;55.942;37.314;2022-08-19T09:58:10;100253.75;;;25.25;42.88
44138;BME280;29800;55.942;37.314;2022-08-19T10:00:37;100250.31;;;25.28;42.99
44138;BME280;29800;55.942;37.314;2022-08-19T10:03:04;100255.03;;;25.36;42.24
44138;BME280;29800;55.942;37.314;2022-08-19T10:05:30;100254.38;;;25.39;43.74
44138;BME280;29800;55.942;37.314;2022-08-19T10:08:21;100245.09;;;25.47;43.86
44138;BME280;29800;55.942;37.314;2022-08-19T10:10:49;100260.22;;;25.55;43.92
44138;BME280;29800;55.942;37.314;2022-08-19T10:13:18;100259.97;;;25.69;42.53
44138;BME280;29800;55.942;37.314;2022-08-19T10:15:48;100252.78;;;25.80;42.96
44138;BME280;29800;55.942;37.314;2022-08-19T10:18:17;100251.72;;;25.94;41.67
44138;BME280;29800;55.942;37.314;2022-08-19T10:20:45;100250.84;;;26.02;41.42
44138;BME280;29800;55.942;37.314;2022-08-19T10:23:12;100254.50;;;26.02;42.46
44138;BME280;29800;55.942;37.314;2022-08-19T10:25:39;100243.41;;;26.06;42.32
44138;BME280;29800;55.942;37.314;2022-08-19T10:28:05;100247.66;;;26.12;40.24
44138;BME280;29800;55.942;37.314;2022-08-19T10:30:31;100251.34;;;26.04;41.92
44138;BME280;29800;55.942;37.314;2022-08-19T10:32:58;100248.03;;;26.02;42.10
44138;BME280;29800;55.942;37.314;2022-08-19T10:35:24;100241.50;;;25.98;41.99
44138;BME280;29800;55.942;37.314;2022-08-19T10:37:55;100241.63;;;26.01;41.02
44138;BME280;29800;55.942;37.314;2022-08-19T10:40:28;100245.41;;;26.06;41.98
44138;BME280;29800;55.942;37.314;2022-08-19T10:42:55;100249.94;;;26.10;39.84
44138;BME280;29800;55.942;37.314;2022-08-19T10:45:23;100252.28;;;26.08;41.61
44138;BME280;29800;55.942;37.314;2022-08-19T10:47:52;100251.94;;;26.10;41.28
44138;BME280;29800;55.942;37.314;2022-08-19T10:50:19;100253.72;;;26.14;40.07
44138;BME280;29800;55.942;37.314;2022-08-19T10:53:06;100255.28;;;26.24;37.72
44138;BME280;29800;55.942;37.314;2022-08-19T10:55:34;100265.50;;;26.29;37.69
44138;BME280;29800;55.942;37.314;2022-08-19T10:58:20;100258.28;;;26.40;38.71
44138;BME280;29800;55.942;37.314;2022-08-19T11:00:52;100258.66;;;26.51;36.76
44138;BME280;29800;55.942;37.314;2022-08-19T11:03:19;100256.47;;;26.56;35.57
44138;BME280;29800;55.942;37.314;2022-08-19T11:05:45;100247.00;;;26.61;35.87
44138;BME280;29800;55.942;37.314;2022-08-19T11:08:12;100258.41;;;26.65;35.23
44138;BME280;29800;55.942;37.314;2022-08-19T11:10:41;100249.19;;;26.76;36.53
44138;BME280;29800;55.942;37.314;2022-08-19T11:13:08;100253.78;;;26.81;36.29
44138;BME280;29800;55.942;37.314;2022-08-19T11:15:34;100252.84;;;26.89;34.84
44138;BME280;29800;55.942;37.314;2022-08-19T11:18:01;100256.13;;;26.91;33.98
44138;BME280;29800;55.942;37.314;2022-08-19T11:20:27;100248.78;;;26.99;33.92
44138;BME280;29800;55.942;37.314;2022-08-19T11:22:53;100240.47;;;27.03;33.39
44138;BME280;29800;55.942;37.314;2022-08-19T11:25:20;100251.59;;;26.99;34.67
44138;BME280;29800;55.942;37.314;2022-08-19T11:27:46;100252.34;;;26.87;34.98
44138;BME280;29800;55.942;37.314;2022-08-19T11:30:13;100243.47;;;26.85;31.32
44138;BME280;29800;55.942;37.314;2022-08-19T11:32:42;100244.78;;;26.88;31.16
44138;BME280;29800;55.942;37.314;2022-08-19T11:35:09;100248.28;;;26.85;31.05
44138;BME280;29800;55.942;37.314;2022-08-19T11:37:36;100240.44;;;26.78;33.14
44138;BME280;29800;55.942;37.314;2022-08-19T11:40:05;100251.16;;;26.76;30.95
44138;BME280;29800;55.942;37.314;2022-08-19T11:42:32;100242.03;;;26.79;31.50
44138;BME280;29800;55.942;37.314;2022-08-19T11:45:16;100252.59;;;26.82;30.59
44138;BME280;29800;55.942;37.314;2022-08-19T11:47:42;100260.53;;;26.80;31.85
44138;BME280;29800;55.942;37.314;2022-08-19T11:50:09;100255.97;;;26.75;32.42
44138;BME280;29800;55.942;37.314;2022-08-19T11:52:35;100262.16;;;26.69;33.04
44138;BME280;29800;55.942;37.314;2022-08-19T11:55:02;100254.53;;;26.69;32.96
44138;BME280;29800;55.942;37.314;2022-08-19T11:57:28;100252.78;;;26.65;31.79
44138;BME280;29800;55.942;37.314;2022-08-19T11:59:54;100244.16;;;26.70;31.04
44138;BME280;29800;55.942;37.314;2022-08-19T12:02:20;100250.69;;;26.74;32.77
44138;BME280;29800;55.942;37.314;2022-08-19T12:04:47;100246.72;;;26.75;30.71
44138;BME280;29800;55.942;37.314;2022-08-19T12:07:13;100261.22;;;26.77;31.32
44138;BME280;29800;55.942;37.314;2022-08-19T12:09:39;100250.22;;;26.72;28.62
44138;BME280;29800;55.942;37.314;2022-08-19T12:12:05;100257.00;;;26.71;26.99
44138;BME280;29800;55.942;37.314;2022-08-19T12:14:32;100253.16;;;26.75;30.13
44138;BME280;29800;55.942;37.314;2022-08-19T12:16:58;100249.53;;;26.75;30.17
44138;BME280;29800;55.942;37.314;2022-08-19T12:19:24;100249.41;;;26.71;30.65
44138;BME280;29800;55.942;37.314;2022-08-19T12:21:51;100259.59;;;26.76;29.94
44138;BME280;29800;55.942;37.314;2022-08-19T12:24:18;100251.66;;;26.78;30.23
44138;BME280;29800;55.942;37.314;2022-08-19T12:26:49;100254.34;;;26.87;28.87
44138;BME280;29800;55.942;37.314;2022-08-19T12:29:15;100240.66;;;26.85;27.75
44138;BME280;29800;55.942;37.314;2022-08-19T12:31:41;100237.97;;;26.89;29.77
44138;BME280;29800;55.942;37.314;2022-08-19T12:34:07;100240.53;;;26.94;28.58
44138;BME280;29800;55.942;37.314;2022-08-19T12:36:33;100254.25;;;26.95;28.16
44138;BME280;29800;55.942;37.314;2022-08-19T12:39:00;100248.41;;;27.01;28.52
44138;BME280;29800;55.942;37.314;2022-08-19T12:41:26;100249.81;;;26.94;29.66
44138;BME280;29800;55.942;37.314;2022-08-19T12:43:52;100241.13;;;26.87;31.21
44138;BME280;29800;55.942;37.314;2022-08-19T12:46:19;100241.97;;;26.88;30.84
44138;BME280;29800;55.942;37.314;2022-08-19T12:48:45;100231.78;;;26.83;30.79
44138;BME280;29800;55.942;37.314;2022-08-19T12:51:17;100236.69;;;26.86;31.33
44138;BME280;29800;55.942;37.314;2022-08-19T12:53:46;100228.50;;;26.81;31.59
44138;BME280;29800;55.942;37.314;2022-08-19T12:56:12;100232.13;;;26.82;31.46